Time;durP1;ratioP1;P1;durP2;ratioP2;P2;SDS_P1;SDS_P2;PMS_P1;PMS_P2;Temp;Humidity;BMP_temperature;BMP_pressure;BME280_temperature;BME280_humidity;BME280_pressure;Samples;Min_cycle;Max_cycle;Signal;HPM_P1;HPM_P2
2021/12/20 00:01:38;;;;;;;5.15;3.10;;;-3.70;95.20;;;;;;5053082;28;20021;-80
2021/12/20 00:04:04;;;;;;;3.72;2.72;;;-3.70;95.60;;;;;;5053333;28;20029;-82
2021/12/20 00:06:29;;;;;;;4.10;2.90;;;-3.60;96.00;;;;;;5051927;28;20112;-82
2021/12/20 00:08:55;;;;;;;6.00;3.65;;;-3.70;96.20;;;;;;5053112;28;20112;-82
2021/12/20 00:11:21;;;;;;;7.35;3.38;;;-3.60;96.20;;;;;;5053295;28;20017;-82
2021/12/20 00:13:47;;;;;;;4.72;2.95;;;-3.70;96.10;;;;;;5047845;28;20026;-81
2021/12/20 00:16:12;;;;;;;4.97;3.17;;;-3.70;96.20;;;;;;5045561;28;20021;-81
2021/12/20 00:18:39;;;;;;;4.20;3.08;;;-3.80;96.30;;;;;;5055176;28;20035;-81
2021/12/20 00:21:04;;;;;;;7.53;2.75;;;-3.80;96.50;;;;;;5053257;28;20017;-82
2021/12/20 00:23:30;;;;;;;4.32;3.22;;;-3.80;96.40;;;;;;5043645;28;20025;-80
2021/12/20 00:25:56;;;;;;;4.65;2.70;;;-3.80;96.50;;;;;;5046942;28;20029;-79
2021/12/20 00:28:22;;;;;;;4.13;2.35;;;-3.90;96.70;;;;;;5054411;28;20432;-79
2021/12/20 00:30:48;;;;;;;3.45;2.50;;;-3.90;96.80;;;;;;5054042;28;20131;-82
2021/12/20 00:33:15;;;;;;;4.97;3.08;;;-3.80;96.90;;;;;;5053826;28;20021;-80
2021/12/20 00:35:41;;;;;;;5.80;2.50;;;-3.80;96.50;;;;;;5052284;28;20017;-81
2021/12/20 00:40:51;;;;;;;3.22;2.25;;;-3.90;96.20;;;;;;5053627;28;20433;-80
2021/12/20 00:43:17;;;;;;;2.92;2.63;;;-3.90;96.30;;;;;;5039896;28;20040;-81
2021/12/20 00:45:43;;;;;;;4.28;2.10;;;-3.90;96.30;;;;;;5045818;28;20029;-82
2021/12/20 00:48:10;;;;;;;7.60;2.88;;;-3.90;96.30;;;;;;5036628;28;20104;-81
2021/12/20 00:50:37;;;;;;;2.40;2.10;;;-3.90;96.20;;;;;;5052975;28;20029;-81
2021/12/20 00:53:03;;;;;;;4.32;2.33;;;-3.90;96.30;;;;;;5052759;28;20017;-81
2021/12/20 00:55:29;;;;;;;4.57;2.15;;;-3.90;96.40;;;;;;5052642;28;20490;-82
2021/12/20 00:57:57;;;;;;;2.67;1.92;;;-3.90;96.40;;;;;;5052476;28;20033;-79
2021/12/20 01:00:27;;;;;;;2.75;1.80;;;-4.00;96.20;;;;;;5052839;28;20025;-81
2021/12/20 01:02:54;;;;;;;3.42;2.00;;;-3.90;96.20;;;;;;5053587;28;20013;-80
2021/12/20 01:05:21;;;;;;;3.10;2.08;;;-3.90;96.30;;;;;;5052526;28;20021;-79
2021/12/20 01:07:48;;;;;;;3.10;2.08;;;-4.00;96.00;;;;;;5052375;28;20030;-81
2021/12/20 01:10:13;;;;;;;4.20;2.03;;;-4.00;95.70;;;;;;5054509;28;20029;-80
2021/12/20 01:12:44;;;;;;;2.63;2.17;;;-4.00;95.70;;;;;;5056225;28;20076;-80
2021/12/20 01:15:14;;;;;;;2.88;2.08;;;-4.00;95.90;;;;;;5056178;28;20033;-80
2021/12/20 01:17:40;;;;;;;2.72;2.08;;;-4.00;95.90;;;;;;5056148;28;20036;-82
2021/12/20 01:20:07;;;;;;;5.07;3.08;;;-4.10;95.60;;;;;;5051396;28;20429;-80
2021/12/20 01:22:33;;;;;;;;;;;-4.10;95.60;;;;;;5055363;28;20032;-82
2021/12/20 01:24:59;;;;;;;2.47;1.70;;;-4.20;95.60;;;;;;5055764;28;19999;-82
2021/12/20 01:27:24;;;;;;;3.15;1.83;;;-4.20;95.80;;;;;;5055683;28;20021;-81
2021/12/20 01:29:50;;;;;;;3.30;1.77;;;-4.20;95.60;;;;;;5055917;28;20041;-81
2021/12/20 01:32:16;;;;;;;3.65;2.25;;;-4.20;95.70;;;;;;5055791;28;20499;-83
2021/12/20 01:34:42;;;;;;;2.92;1.80;;;-4.30;95.60;;;;;;5055645;28;20032;-80
2021/12/20 01:37:13;;;;;;;3.33;2.47;;;-4.30;95.70;;;;;;5055752;28;20025;-81
2021/12/20 01:39:39;;;;;;;1.52;1.23;;;-4.30;95.30;;;;;;5055844;28;20091;-81
2021/12/20 01:42:05;;;;;;;3.75;2.30;;;-4.40;94.90;;;;;;5056936;28;20044;-79
2021/12/20 01:44:31;;;;;;;3.33;2.15;;;-4.40;95.00;;;;;;5059692;28;20497;-79
2021/12/20 01:47:01;;;;;;;3.92;1.90;;;-4.50;95.20;;;;;;5056771;28;20500;-80
2021/12/20 01:49:28;;;;;;;2.15;1.52;;;-4.50;95.50;;;;;;5054944;28;20063;-81
2021/12/20 01:52:10;;;;;;;;;;;-4.50;95.50;;;;;;5043293;28;20148;-82
2021/12/20 01:54:36;;;;;;;1.90;1.35;;;-4.50;95.50;;;;;;5042434;28;20260;-83
2021/12/20 01:57:03;;;;;;;3.72;2.00;;;-4.60;95.70;;;;;;5042353;28;20037;-82
2021/12/20 01:59:28;;;;;;;2.42;1.38;;;-4.60;95.80;;;;;;5053691;28;20021;-81
2021/12/20 02:01:54;;;;;;;3.72;1.85;;;-4.70;95.90;;;;;;5053928;28;20071;-81
2021/12/20 02:04:21;;;;;;;2.85;2.20;;;-4.70;96.10;;;;;;5055200;28;20496;-82
2021/12/20 02:06:49;;;;;;;4.57;2.10;;;-4.70;96.20;;;;;;5055454;28;20025;-81
2021/12/20 02:09:17;;;;;;;3.65;2.17;;;-4.70;96.30;;;;;;5054901;28;20047;-81
2021/12/20 02:11:47;;;;;;;3.13;2.40;;;-4.60;96.50;;;;;;5055392;28;20018;-81
2021/12/20 02:14:14;;;;;;;2.20;1.73;;;-4.60;96.30;;;;;;5055799;28;20090;-82
2021/12/20 02:16:40;;;;;;;;;;;-4.60;96.10;;;;;;5055815;28;20047;-80
2021/12/20 02:19:15;;;;;;;4.00;1.88;;;-4.60;96.00;;;;;;5045977;28;19921;-80
2021/12/20 02:21:44;;;;;;;3.92;2.30;;;-4.60;96.20;;;;;;5041777;28;20055;-81
2021/12/20 02:24:10;;;;;;;4.78;2.72;;;-4.60;96.30;;;;;;5055211;28;20029;-81
2021/12/20 02:26:36;;;;;;;3.70;1.38;;;-4.60;96.20;;;;;;5054784;28;20070;-83
2021/12/20 02:29:07;;;;;;;2.03;1.63;;;-4.60;96.10;;;;;;5055053;28;20037;-81
2021/12/20 02:37:18;;;;;;;4.45;1.95;;;-4.60;96.10;;;;;;5060000;28;20503;-81
2021/12/20 02:39:45;;;;;;;2.47;1.35;;;-4.60;96.20;;;;;;5067250;28;20084;-81
2021/12/20 02:42:16;;;;;;;4.55;2.65;;;-4.60;96.10;;;;;;5056881;28;20069;-81
2021/12/20 02:44:59;;;;;;;2.28;1.55;;;-4.60;96.10;;;;;;5054617;28;20079;-82
2021/12/20 02:47:28;;;;;;;3.22;1.63;;;-4.70;96.20;;;;;;5054831;28;20023;-82
2021/12/20 02:49:57;;;;;;;2.53;2.33;;;-4.70;96.30;;;;;;5054748;28;20547;-82
2021/12/20 02:52:23;;;;;;;3.55;1.70;;;-4.70;96.30;;;;;;5040895;28;20048;-83
2021/12/20 02:54:49;;;;;;;2.03;1.58;;;-4.60;96.40;;;;;;5054461;28;20024;-83
2021/12/20 02:57:15;;;;;;;2.55;1.45;;;-4.70;96.30;;;;;;5054868;28;20087;-80
2021/12/20 02:59:41;;;;;;;3.25;1.85;;;-4.70;96.10;;;;;;5054300;28;20053;-83
2021/12/20 03:02:10;;;;;;;2.88;2.45;;;-4.70;96.10;;;;;;5054375;28;20127;-80
2021/12/20 03:04:36;;;;;;;4.13;1.85;;;-4.70;96.20;;;;;;5054387;28;20525;-82
2021/12/20 03:07:06;;;;;;;2.45;2.00;;;-4.70;96.00;;;;;;5054346;28;20025;-82
2021/12/20 03:09:37;;;;;;;2.53;1.48;;;-4.70;95.50;;;;;;5053887;28;20094;-82
2021/12/20 03:12:06;;;;;;;2.00;1.70;;;-4.80;95.30;;;;;;5040065;28;20030;-82
2021/12/20 03:14:37;;;;;;;3.72;2.42;;;-4.80;94.60;;;;;;5052568;28;20017;-80
2021/12/20 03:17:03;;;;;;;2.80;1.63;;;-4.90;94.30;;;;;;5051736;28;20022;-83
2021/12/20 03:19:30;;;;;;;2.25;1.50;;;-5.00;94.40;;;;;;5053087;28;20029;-80
2021/12/20 03:21:57;;;;;;;9.60;2.15;;;-5.00;94.60;;;;;;5056043;28;20123;-81
2021/12/20 03:24:23;;;;;;;1.70;1.60;;;-5.00;94.50;;;;;;5055364;28;20021;-81
2021/12/20 03:26:49;;;;;;;3.45;2.22;;;-5.10;94.50;;;;;;5052629;28;20538;-83
2021/12/20 03:29:15;;;;;;;2.75;1.73;;;-5.10;94.50;;;;;;5053747;28;20029;-80
2021/12/20 03:31:41;;;;;;;1.52;1.33;;;-5.20;94.70;;;;;;5053549;28;20040;-84
2021/12/20 03:34:07;;;;;;;3.08;2.10;;;-5.20;94.80;;;;;;5053558;28;20416;-81
2021/12/20 03:36:34;;;;;;;2.30;1.58;;;-5.20;94.70;;;;;;5053452;28;20151;-83
2021/12/20 03:39:00;;;;;;;3.15;2.17;;;-5.20;94.50;;;;;;5054038;28;20083;-80
2021/12/20 03:41:27;;;;;;;4.87;1.73;;;-5.20;94.50;;;;;;5053708;28;20021;-82
2021/12/20 03:43:52;;;;;;;2.97;1.92;;;-5.30;94.30;;;;;;5053967;28;20052;-82
2021/12/20 03:46:19;;;;;;;5.20;2.47;;;-5.30;94.60;;;;;;5052328;28;20508;-82
2021/12/20 03:48:45;;;;;;;1.80;1.33;;;-5.40;94.70;;;;;;5054401;28;20123;-81
2021/12/20 03:51:12;;;;;;;3.22;1.83;;;-5.40;94.40;;;;;;5039317;28;20025;-80
2021/12/20 03:53:39;;;;;;;3.60;1.75;;;-5.40;94.30;;;;;;5034982;28;20087;-81
2021/12/20 03:56:06;;;;;;;2.03;1.50;;;-5.50;94.60;;;;;;5048658;28;20032;-80
2021/12/20 03:58:33;;;;;;;6.03;2.33;;;-5.50;94.80;;;;;;5055778;28;20036;-81
2021/12/20 04:01:03;;;;;;;5.18;2.20;;;-5.40;95.00;;;;;;5055997;28;20366;-83
2021/12/20 04:03:31;;;;;;;8.07;2.85;;;-5.50;95.10;;;;;;5053018;28;20024;-82
2021/12/20 04:05:57;;;;;;;3.75;1.60;;;-5.50;95.10;;;;;;5053740;28;20086;-81
2021/12/20 04:08:23;;;;;;;3.08;1.58;;;-5.50;94.60;;;;;;5053838;28;20029;-83
2021/12/20 04:10:49;;;;;;;2.78;1.95;;;-5.50;94.60;;;;;;5052265;28;20025;-80
2021/12/20 04:13:15;;;;;;;6.47;2.03;;;-5.50;94.20;;;;;;5054172;28;20025;-81
2021/12/20 04:15:41;;;;;;;4.55;2.03;;;-5.60;94.00;;;;;;5050098;28;20018;-80
2021/12/20 04:18:07;;;;;;;6.75;2.42;;;-5.60;94.10;;;;;;5047006;28;20028;-79
2021/12/20 04:20:33;;;;;;;1.50;1.35;;;-5.60;93.90;;;;;;5051687;28;20075;-81
2021/12/20 04:22:59;;;;;;;3.78;2.28;;;-5.60;94.00;;;;;;5053580;28;20039;-83
2021/12/20 04:25:25;;;;;;;5.55;3.35;;;-5.70;94.30;;;;;;5052280;28;20107;-81
2021/12/20 04:27:51;;;;;;;3.17;2.40;;;-5.70;94.60;;;;;;5053409;28;20032;-83
2021/12/20 04:30:17;;;;;;;7.88;2.35;;;-5.70;94.60;;;;;;5053480;28;20029;-83
2021/12/20 04:32:44;;;;;;;2.22;2.00;;;-5.70;94.80;;;;;;5052951;28;20021;-82
2021/12/20 04:35:12;;;;;;;4.40;1.80;;;-5.70;95.00;;;;;;5053367;28;20106;-82
2021/12/20 04:37:41;;;;;;;2.67;1.60;;;-5.70;94.30;;;;;;5043787;28;20022;-80
2021/12/20 04:40:10;;;;;;;3.15;1.90;;;-5.80;93.90;;;;;;5049754;28;20385;-79
2021/12/20 04:42:36;;;;;;;4.60;2.72;;;-5.80;94.00;;;;;;5053042;28;20120;-81
2021/12/20 04:45:02;;;;;;;5.80;3.00;;;-5.90;94.00;;;;;;5056315;28;20063;-81
2021/12/20 04:47:28;;;;;;;3.08;2.28;;;-5.80;94.00;;;;;;5057222;28;20088;-83
2021/12/20 04:49:54;;;;;;;1.98;1.33;;;-5.90;94.00;;;;;;5057264;28;20037;-80
2021/12/20 04:52:20;;;;;;;4.18;2.22;;;-5.90;94.10;;;;;;5056480;28;20067;-80
2021/12/20 04:54:45;;;;;;;6.43;2.85;;;-5.90;94.10;;;;;;5045255;28;20032;-80
2021/12/20 04:57:11;;;;;;;2.33;1.77;;;-5.90;94.20;;;;;;5055050;28;20013;-82
2021/12/20 04:59:37;;;;;;;4.57;3.17;;;-5.90;94.10;;;;;;5045693;28;20056;-79
2021/12/20 05:02:03;;;;;;;3.83;2.05;;;-6.00;94.00;;;;;;5058544;28;20025;-80
2021/12/20 05:04:29;;;;;;;5.38;2.55;;;-6.00;93.90;;;;;;5064684;28;20032;-80
2021/12/20 05:06:55;;;;;;;10.75;3.45;;;-6.10;94.30;;;;;;5058244;28;20021;-81
2021/12/20 05:09:25;;;;;;;2.17;1.52;;;-6.00;94.50;;;;;;5057801;28;20040;-81
2021/12/20 05:11:58;;;;;;;10.23;2.67;;;-6.10;94.40;;;;;;5057922;28;20017;-80
2021/12/20 05:14:24;;;;;;;3.38;1.48;;;-6.10;94.50;;;;;;5051511;28;20021;-80
2021/12/20 05:16:49;;;;;;;4.47;2.10;;;-6.10;94.50;;;;;;5051402;28;20096;-82
2021/12/20 05:19:15;;;;;;;4.00;2.13;;;-6.10;94.20;;;;;;5050410;28;20033;-82
2021/12/20 05:21:41;;;;;;;3.15;2.00;;;-6.20;94.20;;;;;;5049074;28;20025;-82
2021/12/20 05:24:07;;;;;;;3.65;2.35;;;-6.20;94.50;;;;;;5047064;28;20056;-81
2021/12/20 05:26:33;;;;;;;1.80;1.67;;;-6.20;94.70;;;;;;5056698;28;20085;-81
2021/12/20 05:29:00;;;;;;;2.90;2.50;;;-6.20;94.90;;;;;;5055811;28;20029;-83
2021/12/20 05:31:26;;;;;;;3.63;2.15;;;-6.10;94.80;;;;;;5047035;28;20021;-81
2021/12/20 05:33:52;;;;;;;4.25;1.92;;;-6.10;94.70;;;;;;5049934;28;20359;-81
2021/12/20 05:36:17;;;;;;;5.50;2.88;;;-6.10;94.80;;;;;;5052414;28;20025;-82
2021/12/20 05:38:43;;;;;;;3.42;2.88;;;-6.10;94.90;;;;;;5053099;28;20056;-81
2021/12/20 05:41:09;;;;;;;3.45;2.53;;;-6.10;95.00;;;;;;5060175;28;20147;-82
2021/12/20 05:43:35;;;;;;;6.53;2.55;;;-6.10;95.00;;;;;;5057969;28;20032;-81
2021/12/20 05:46:00;;;;;;;4.97;2.85;;;-6.10;95.20;;;;;;5052027;28;20433;-83
2021/12/20 05:48:26;;;;;;;5.20;2.60;;;-6.10;94.90;;;;;;5052107;28;20072;-80
2021/12/20 05:50:52;;;;;;;4.05;2.80;;;-6.10;94.90;;;;;;5057588;28;20405;-83
2021/12/20 05:53:18;;;;;;;5.63;2.80;;;-6.00;95.10;;;;;;5057627;28;20056;-82
2021/12/20 05:55:44;;;;;;;2.67;2.00;;;-6.00;95.20;;;;;;5052207;28;20017;-84
2021/12/20 05:58:10;;;;;;;4.90;2.40;;;-6.00;94.70;;;;;;5056052;28;20474;-82
2021/12/20 06:00:35;;;;;;;3.53;2.80;;;-6.10;94.70;;;;;;5051634;28;20390;-78
2021/12/20 06:03:02;;;;;;;6.10;2.38;;;-6.10;94.70;;;;;;5046566;28;20029;-81
2021/12/20 06:05:27;;;;;;;8.23;4.47;;;-6.10;94.60;;;;;;5052609;28;20033;-81
2021/12/20 06:07:53;;;;;;;5.10;3.10;;;-6.10;94.70;;;;;;5046362;28;20025;-77
2021/12/20 06:10:19;;;;;;;4.10;3.13;;;-6.10;94.60;;;;;;5062811;28;20490;-82
2021/12/20 06:12:45;;;;;;;4.35;2.83;;;-6.10;94.70;;;;;;5058514;28;20017;-82
2021/12/20 06:15:12;;;;;;;5.28;2.22;;;-6.10;94.90;;;;;;5050696;28;20074;-82
2021/12/20 06:17:38;;;;;;;7.27;4.07;;;-6.10;94.90;;;;;;5055926;28;20025;-82
2021/12/20 06:20:06;;;;;;;6.65;3.08;;;-6.10;94.70;;;;;;5055549;28;20029;-83
2021/12/20 06:22:32;;;;;;;3.83;2.47;;;-6.10;94.70;;;;;;5050276;28;20105;-81
2021/12/20 06:24:59;;;;;;;4.53;3.40;;;-6.10;94.70;;;;;;5047742;28;20057;-80
2021/12/20 06:27:25;;;;;;;4.05;2.63;;;-6.10;94.20;;;;;;5055382;28;20100;-86
2021/12/20 06:29:51;;;;;;;3.65;2.67;;;-6.10;94.00;;;;;;5055784;28;20120;-82
2021/12/20 06:32:17;;;;;;;3.10;2.10;;;-6.20;94.00;;;;;;5055633;28;20083;-86
2021/12/20 06:34:43;;;;;;;3.92;3.00;;;-6.30;94.00;;;;;;5056830;28;20074;-84
2021/12/20 06:37:09;;;;;;;3.47;2.10;;;-6.30;94.10;;;;;;5054334;28;20032;-82
2021/12/20 06:39:35;;;;;;;5.63;2.23;;;-6.30;94.20;;;;;;5047057;28;20041;-81
2021/12/20 06:42:01;;;;;;;2.92;2.38;;;-6.30;94.00;;;;;;5050927;28;20278;-80
2021/12/20 06:44:27;;;;;;;3.17;2.35;;;-6.30;94.00;;;;;;5055301;28;20040;-80
2021/12/20 06:46:53;;;;;;;4.90;3.35;;;-6.30;93.80;;;;;;5055682;28;20050;-81
2021/12/20 06:49:19;;;;;;;3.80;2.78;;;-6.40;94.00;;;;;;5056451;28;20116;-83
2021/12/20 06:51:45;;;;;;;5.30;3.45;;;-6.40;93.90;;;;;;5054467;28;20021;-82
2021/12/20 06:54:13;;;;;;;3.85;2.47;;;-6.30;93.40;;;;;;5042307;28;20086;-82
2021/12/20 06:56:39;;;;;;;5.00;2.75;;;-6.40;93.50;;;;;;5056567;28;20092;-83
2021/12/20 06:59:06;;;;;;;5.63;2.60;;;-6.50;93.50;;;;;;5056630;28;20089;-82
2021/12/20 07:01:32;;;;;;;5.45;2.65;;;-6.50;93.60;;;;;;5055850;28;20377;-81
2021/12/20 07:03:58;;;;;;;4.43;2.70;;;-6.50;93.50;;;;;;5055835;28;20029;-84
2021/12/20 07:06:24;;;;;;;4.78;2.60;;;-6.50;93.50;;;;;;5056180;28;20067;-82
2021/12/20 07:08:50;;;;;;;4.20;3.30;;;-6.50;93.30;;;;;;5039203;28;20042;-80
2021/12/20 07:11:16;;;;;;;6.90;3.92;;;-6.50;93.50;;;;;;5056174;28;20088;-81
2021/12/20 07:13:42;;;;;;;5.03;3.28;;;-6.50;93.70;;;;;;5041969;28;20107;-82
2021/12/20 07:16:09;;;;;;;3.95;3.03;;;-6.40;94.00;;;;;;5049921;28;20028;-83
2021/12/20 07:18:35;;;;;;;4.63;3.22;;;-6.40;94.30;;;;;;5044391;28;20029;-82
2021/12/20 07:21:01;;;;;;;3.55;2.78;;;-6.40;93.90;;;;;;5054466;28;20477;-80
2021/12/20 07:23:27;;;;;;;4.63;2.67;;;-6.40;93.50;;;;;;5054714;28;20037;-84
2021/12/20 07:25:53;;;;;;;6.20;2.92;;;-6.40;93.80;;;;;;5041211;28;20025;-88
2021/12/20 07:28:19;;;;;;;5.63;3.13;;;-6.30;94.00;;;;;;5042454;28;20083;-89
2021/12/20 07:30:46;;;;;;;5.57;3.08;;;-6.30;93.60;;;;;;5045014;28;20480;-88
2021/12/20 07:33:11;;;;;;;8.30;3.55;;;-6.30;93.60;;;;;;5040463;28;20390;-87
2021/12/20 07:35:38;;;;;;;5.05;2.97;;;-6.30;93.50;;;;;;5038682;28;20038;-85
2021/12/20 07:38:05;;;;;;;5.13;2.78;;;-6.20;93.60;;;;;;5038842;28;20029;-84
2021/12/20 07:40:31;;;;;;;;;;;-6.20;93.70;;;;;;5040965;28;20029;-85
2021/12/20 07:42:58;;;;;;;8.88;4.32;;;-6.20;93.60;;;;;;5037049;28;19924;-85
2021/12/20 07:45:23;;;;;;;11.07;3.95;;;-6.20;93.10;;;;;;5037720;28;20087;-85
2021/12/20 07:47:50;;;;;;;6.80;3.28;;;-6.20;92.80;;;;;;5039845;28;20413;-85
2021/12/20 07:50:20;;;;;;;5.03;3.10;;;-6.20;93.00;;;;;;5035988;28;20069;-85
2021/12/20 07:52:47;;;;;;;2.92;2.60;;;-6.10;93.20;;;;;;5039483;28;20057;-87
2021/12/20 07:55:21;;;;;;;6.10;3.72;;;-6.10;92.90;;;;;;5042531;28;20032;-87
2021/12/20 07:57:52;;;;;;;5.20;2.80;;;-6.10;92.80;;;;;;5041924;28;20033;-87
2021/12/20 08:00:18;;;;;;;9.43;4.13;;;-6.10;92.50;;;;;;5042545;28;20033;-85
2021/12/20 08:02:44;;;;;;;8.15;3.17;;;-6.10;92.40;;;;;;5036221;28;20051;-84
2021/12/20 08:05:15;;;;;;;4.70;3.42;;;-6.20;92.00;;;;;;5038691;28;20026;-85
2021/12/20 08:07:41;;;;;;;7.18;3.40;;;-6.20;91.70;;;;;;5038391;28;20026;-85
2021/12/20 08:10:08;;;;;;;7.30;3.83;;;-6.20;92.00;;;;;;5037252;28;20075;-86
2021/12/20 08:12:35;;;;;;;6.10;3.47;;;-6.20;91.90;;;;;;5038135;28;20095;-84
2021/12/20 08:15:04;;;;;;;5.60;2.90;;;-6.20;92.00;;;;;;5037853;28;20060;-86
2021/12/20 08:17:31;;;;;;;5.72;3.13;;;-6.20;92.00;;;;;;5037334;28;20024;-86
2021/12/20 08:19:58;;;;;;;6.13;3.15;;;-6.20;92.00;;;;;;5046620;28;20103;-87
2021/12/20 08:22:25;;;;;;;5.00;2.93;;;-6.10;92.20;;;;;;5050685;28;20044;-83
2021/12/20 08:25:05;;;;;;;5.88;3.45;;;-6.10;92.10;;;;;;5049908;28;20255;-85
2021/12/20 08:27:31;;;;;;;4.97;3.10;;;-6.00;91.90;;;;;;5046387;28;20022;-83
2021/12/20 08:29:56;;;;;;;5.40;3.95;;;-6.00;91.40;;;;;;5055576;28;20029;-86
2021/12/20 08:32:22;;;;;;;9.20;3.65;;;-6.00;91.70;;;;;;5065036;28;20490;-84
2021/12/20 08:34:48;;;;;;;21.20;5.85;;;-6.00;91.80;;;;;;5062461;28;20104;-86
2021/12/20 08:37:14;;;;;;;8.98;4.10;;;-6.00;91.30;;;;;;5064633;28;20018;-87
2021/12/20 08:39:40;;;;;;;9.02;4.47;;;-6.00;91.60;;;;;;5064053;28;20382;-86
2021/12/20 08:42:06;;;;;;;14.52;3.72;;;-6.10;91.20;;;;;;5067130;28;20048;-87
2021/12/20 08:44:33;;;;;;;5.05;3.88;;;-6.10;91.30;;;;;;5062930;28;20025;-85
2021/12/20 08:46:59;;;;;;;9.88;3.08;;;-6.00;91.50;;;;;;5063654;28;20024;-83
2021/12/20 08:49:26;;;;;;;3.63;2.67;;;-6.00;90.70;;;;;;5061949;28;20112;-87
2021/12/20 08:51:54;;;;;;;5.22;3.38;;;-6.10;90.70;;;;;;5063950;28;20092;-87
2021/12/20 08:54:20;;;;;;;5.82;3.58;;;-6.10;90.70;;;;;;5064163;28;20025;-83
2021/12/20 08:56:46;;;;;;;7.50;3.28;;;-6.10;91.10;;;;;;5060988;28;20017;-84
2021/12/20 08:59:12;;;;;;;5.18;2.72;;;-6.20;91.20;;;;;;5063070;28;20029;-90
2021/12/20 09:01:38;;;;;;;4.95;2.88;;;-6.10;91.00;;;;;;5064051;28;20158;-87
2021/12/20 09:04:06;;;;;;;9.88;3.83;;;-6.10;91.40;;;;;;5065462;28;20481;-84
2021/12/20 09:06:34;;;;;;;6.93;4.03;;;-6.00;90.90;;;;;;5062224;28;20024;-85
2021/12/20 09:09:00;;;;;;;8.48;3.55;;;-6.00;91.10;;;;;;5058827;28;20124;-85
2021/12/20 09:11:27;;;;;;;5.55;3.30;;;-5.90;91.00;;;;;;5044115;28;20095;-88
2021/12/20 09:13:53;;;;;;;8.63;3.28;;;-5.90;90.90;;;;;;5038803;28;20052;-87
2021/12/20 09:16:19;;;;;;;5.10;2.83;;;-5.70;90.90;;;;;;5038902;28;20052;-85
2021/12/20 09:18:46;;;;;;;9.07;3.85;;;-5.70;90.50;;;;;;5039711;28;20032;-86
2021/12/20 09:21:12;;;;;;;5.30;2.78;;;-5.70;90.30;;;;;;5039392;28;20060;-86
2021/12/20 09:23:40;;;;;;;8.25;3.50;;;-5.70;90.10;;;;;;5041153;28;20033;-86
2021/12/20 09:26:06;;;;;;;5.25;2.88;;;-5.80;90.20;;;;;;5042858;28;20040;-86
2021/12/20 09:28:33;;;;;;;9.27;3.22;;;-5.80;90.70;;;;;;5041249;28;20065;-85
2021/12/20 09:31:00;;;;;;;10.70;3.63;;;-5.80;90.40;;;;;;5056417;28;20025;-83
2021/12/20 09:33:26;;;;;;;8.48;3.55;;;-5.80;90.20;;;;;;5060076;28;20028;-85
2021/12/20 09:35:53;;;;;;;5.25;2.60;;;-5.80;89.40;;;;;;5059980;28;20106;-84
2021/12/20 09:38:20;;;;;;;5.10;2.67;;;-5.80;90.00;;;;;;5061155;28;20021;-84
2021/12/20 09:41:13;;;;;;;5.55;2.65;;;-5.80;90.00;;;;;;5060738;28;20067;-89
2021/12/20 09:43:45;;;;;;;6.85;3.97;;;-5.80;89.40;;;;;;5060505;28;20044;-86
2021/12/20 09:46:11;;;;;;;6.90;3.47;;;-5.90;89.90;;;;;;5058928;28;20112;-86
2021/12/20 09:48:37;;;;;;;5.55;2.55;;;-5.90;90.00;;;;;;5057849;28;20033;-85
2021/12/20 09:51:04;;;;;;;3.35;2.95;;;-5.90;90.00;;;;;;5060712;28;20436;-86
2021/12/20 09:53:30;;;;;;;3.33;2.83;;;-6.00;88.40;;;;;;5060963;28;20025;-86
2021/12/20 09:55:58;;;;;;;6.28;3.20;;;-6.10;87.60;;;;;;5061267;28;20040;-86
2021/12/20 09:58:26;;;;;;;5.57;3.13;;;-6.30;88.50;;;;;;5061620;28;20390;-87
2021/12/20 10:00:53;;;;;;;5.82;2.80;;;-6.30;88.90;;;;;;5062987;28;20068;-87
2021/12/20 10:03:21;;;;;;;7.22;3.13;;;-6.40;89.60;;;;;;5062282;28;20021;-87
2021/12/20 10:05:48;;;;;;;7.93;3.10;;;-6.40;89.60;;;;;;5061253;28;20059;-86
2021/12/20 10:08:20;;;;;;;5.45;4.10;;;-6.40;90.00;;;;;;5054949;28;20037;-85
2021/12/20 10:10:50;;;;;;;4.75;2.38;;;-6.40;90.10;;;;;;5041683;28;20056;-86
2021/12/20 10:13:24;;;;;;;9.02;2.75;;;-6.40;90.20;;;;;;5039316;28;20025;-85
2021/12/20 10:15:52;;;;;;;8.02;3.45;;;-6.40;90.30;;;;;;5040848;28;20032;-88
2021/12/20 10:18:18;;;;;;;5.90;3.22;;;-6.40;89.70;;;;;;5042490;28;20017;-85
2021/12/20 10:20:56;;;;;;;4.65;2.22;;;-6.50;88.70;;;;;;5040672;28;20108;-84
2021/12/20 10:23:25;;;;;;;4.80;2.92;;;-6.40;88.70;;;;;;5043092;28;20030;-86
2021/12/20 10:26:00;;;;;;;4.50;2.75;;;-6.40;89.30;;;;;;5046424;28;20083;-85
2021/12/20 10:28:32;;;;;;;3.03;2.22;;;-6.40;89.10;;;;;;5044194;28;20037;-85
2021/12/20 10:31:03;;;;;;;3.95;2.75;;;-6.30;89.90;;;;;;5044383;28;20022;-89
2021/12/20 10:33:29;;;;;;;4.80;2.05;;;-6.30;89.00;;;;;;5044028;28;20021;-85
2021/12/20 10:35:57;;;;;;;3.22;2.22;;;-6.30;90.00;;;;;;5067079;28;20440;-87
2021/12/20 10:38:35;;;;;;;4.93;2.97;;;-6.30;88.90;;;;;;5061586;28;20044;-87
2021/12/20 10:41:06;;;;;;;3.95;2.55;;;-6.40;87.20;;;;;;5059449;28;20148;-87
2021/12/20 10:43:40;;;;;;;5.43;3.45;;;-6.50;87.30;;;;;;5057828;28;20068;-85
2021/12/20 10:46:12;;;;;;;3.28;2.60;;;-6.60;87.80;;;;;;5057861;28;20458;-87
2021/12/20 10:48:38;;;;;;;2.75;2.00;;;-6.60;88.30;;;;;;5057447;28;20045;-88
2021/12/20 10:51:05;;;;;;;3.95;1.95;;;-6.70;86.80;;;;;;5057666;28;20036;-85
2021/12/20 10:53:30;;;;;;;4.53;2.67;;;-6.80;86.30;;;;;;5058215;28;20126;-85
2021/12/20 10:56:06;;;;;;;6.38;2.95;;;-6.90;87.10;;;;;;5061302;28;20025;-85
2021/12/20 10:58:39;;;;;;;5.38;3.03;;;-6.90;87.90;;;;;;5063575;28;20025;-86
2021/12/20 11:01:11;;;;;;;4.32;2.35;;;-7.00;88.80;;;;;;5064495;28;20045;-87
2021/12/20 11:03:41;;;;;;;5.20;3.10;;;-7.00;89.50;;;;;;5059356;28;20097;-87
2021/12/20 11:11:29;;;;;;;4.10;2.90;;;-7.00;90.10;;;;;;5059500;28;20042;-87
2021/12/20 11:13:58;;;;;;;4.67;2.80;;;-6.90;90.20;;;;;;5045000;28;20486;-84
2021/12/20 11:16:36;;;;;;;4.32;2.40;;;-6.90;90.30;;;;;;5021493;28;20262;-86
2021/12/20 11:19:08;;;;;;;9.70;3.47;;;-6.90;90.10;;;;;;5040720;28;20033;-86
2021/12/20 11:21:35;;;;;;;3.95;3.00;;;-6.90;89.20;;;;;;5038449;28;20037;-86
2021/12/20 11:24:03;;;;;;;42.58;9.00;;;-6.90;88.60;;;;;;5040822;28;20108;-85
2021/12/20 11:26:28;;;;;;;;;;;-7.00;88.50;;;;;;5041566;28;20103;-86
2021/12/20 11:28:57;;;;;;;7.47;3.40;;;-7.00;88.90;;;;;;5040489;28;19917;-87
2021/12/20 11:31:24;;;;;;;8.95;2.75;;;-7.10;89.30;;;;;;5058282;28;20060;-86
2021/12/20 11:33:50;;;;;;;7.47;3.80;;;-7.10;87.30;;;;;;5042688;28;20032;-87
2021/12/20 11:36:15;;;;;;;6.95;2.10;;;-7.30;87.10;;;;;;5059879;28;20033;-85
2021/12/20 11:38:41;;;;;;;5.57;3.60;;;-7.30;88.20;;;;;;5061160;28;20029;-89
2021/12/20 11:41:08;;;;;;;7.03;3.13;;;-7.30;89.10;;;;;;5044434;28;20063;-84
2021/12/20 11:43:34;;;;;;;5.37;3.03;;;-7.30;90.00;;;;;;5028593;28;20052;-85
2021/12/20 11:46:01;;;;;;;7.53;3.47;;;-7.30;89.90;;;;;;5059343;28;20025;-87
2021/12/20 11:48:29;;;;;;;3.08;2.13;;;-7.40;90.00;;;;;;5041016;28;20468;-84
2021/12/20 11:50:57;;;;;;;2.72;2.05;;;-7.30;90.20;;;;;;5039304;28;20029;-84
2021/12/20 11:53:23;;;;;;;2.70;2.47;;;-7.40;89.90;;;;;;5056548;28;20528;-85
2021/12/20 11:55:52;;;;;;;7.07;3.20;;;-7.40;90.00;;;;;;5052466;28;20037;-85
2021/12/20 11:58:21;;;;;;;7.78;2.53;;;-7.40;89.20;;;;;;5035930;28;20036;-85
2021/12/20 12:00:51;;;;;;;3.28;2.22;;;-7.40;89.10;;;;;;5037782;28;20029;-86
2021/12/20 12:03:19;;;;;;;4.57;2.55;;;-7.50;88.80;;;;;;5039579;28;20033;-84
2021/12/20 12:05:50;;;;;;;4.53;2.53;;;-7.50;88.60;;;;;;5039186;28;20051;-86
2021/12/20 12:08:41;;;;;;;2.40;1.58;;;-7.60;89.00;;;;;;5039818;28;20022;-86
2021/12/20 12:11:07;;;;;;;4.40;2.03;;;-7.60;89.10;;;;;;5038147;28;20033;-85
2021/12/20 12:14:02;;;;;;;6.47;2.83;;;-7.60;89.00;;;;;;5037563;28;20030;-86
2021/12/20 12:17:02;;;;;;;3.70;2.55;;;-7.70;88.70;;;;;;5039371;28;20033;-90
2021/12/20 12:19:51;;;;;;;3.58;2.28;;;-7.70;88.20;;;;;;5039869;28;20025;-86
2021/12/20 12:22:26;;;;;;;9.38;3.42;;;-7.80;88.40;;;;;;5037795;28;20379;-86
2021/12/20 12:24:54;;;;;;;4.35;2.50;;;-7.80;88.30;;;;;;5036592;28;20037;-87
2021/12/20 12:27:31;;;;;;;4.15;2.90;;;-7.80;89.50;;;;;;5035448;28;20028;-86
2021/12/20 12:30:12;;;;;;;;;;;-7.90;88.80;;;;;;5047301;28;20041;-85
2021/12/20 12:32:47;;;;;;;3.72;2.53;;;-7.90;88.90;;;;;;5057479;28;20239;-85
2021/12/20 12:35:39;;;;;;;3.78;2.38;;;-7.90;88.90;;;;;;5056121;28;20029;-85
2021/12/20 12:38:15;;;;;;;6.90;3.42;;;-7.90;89.20;;;;;;5056320;28;20021;-84
2021/12/20 12:40:43;;;;;;;8.18;2.70;;;-7.90;89.70;;;;;;5057337;28;20032;-87
2021/12/20 12:43:09;;;;;;;12.07;3.10;;;-7.90;90.20;;;;;;5059828;28;20131;-84
2021/12/20 12:45:55;;;;;;;6.07;4.00;;;-7.90;90.50;;;;;;5063517;28;20017;-85
2021/12/20 12:48:36;;;;;;;5.43;2.55;;;-7.90;90.60;;;;;;5065805;28;20029;-86
2021/12/20 12:51:07;;;;;;;5.63;3.30;;;-7.90;90.60;;;;;;5067084;28;20025;-86
2021/12/20 12:53:41;;;;;;;8.57;4.15;;;-7.90;90.60;;;;;;5061985;28;20032;-85
2021/12/20 12:56:25;;;;;;;3.42;2.42;;;-7.90;90.80;;;;;;5059513;28;20472;-86
2021/12/20 12:59:14;;;;;;;9.15;4.40;;;-7.80;90.90;;;;;;5060586;28;20021;-85
2021/12/20 13:01:58;;;;;;;9.07;4.05;;;-7.80;90.80;;;;;;5055085;28;20028;-86
2021/12/20 13:04:47;;;;;;;10.77;5.35;;;-7.90;90.50;;;;;;5058246;28;20391;-84
2021/12/20 13:07:21;;;;;;;9.85;5.25;;;-7.90;90.50;;;;;;5059937;28;20036;-85